createdAt,value
2022-11-01T00:00:30.960Z,90
2022-11-01T00:01:35.165Z,90
2022-11-01T00:02:39.207Z,90
2022-11-01T00:03:43.365Z,90
2022-11-01T00:04:47.825Z,90
2022-11-01T00:05:51.924Z,90
2022-11-01T00:06:56.505Z,90
2022-11-01T00:08:00.812Z,89
2022-11-01T00:09:05.100Z,89
2022-11-01T00:10:09.239Z,89
2022-11-01T00:11:13.451Z,90
2022-11-01T00:12:17.987Z,90
2022-11-01T00:13:22.508Z,89
2022-11-01T00:14:26.555Z,90
2022-11-01T00:15:31.108Z,89
2022-11-01T00:16:35.424Z,90
2022-11-01T00:17:39.876Z,89
2022-11-01T00:18:44.424Z,90
2022-11-01T00:19:48.441Z,90
2022-11-01T00:20:52.608Z,89
2022-11-01T00:21:57.072Z,90
2022-11-01T00:23:01.417Z,89
2022-11-01T00:24:05.277Z,89
2022-11-01T00:25:09.872Z,90
2022-11-01T00:26:13.956Z,90
2022-11-01T00:27:17.974Z,89
2022-11-01T00:28:22.516Z,89
2022-11-01T00:29:26.555Z,89
2022-11-01T00:30:30.575Z,89
2022-11-01T00:31:37.758Z,89
2022-11-01T00:32:41.944Z,90
2022-11-01T00:33:46.516Z,89
2022-11-01T00:34:50.596Z,89
2022-11-01T00:35:54.692Z,89
2022-11-01T00:37:01.874Z,89
2022-11-01T00:38:06.384Z,89
2022-11-01T00:39:10.572Z,89
2022-11-01T00:40:15.068Z,89
2022-11-01T00:41:19.272Z,89
2022-11-01T00:42:23.740Z,89
2022-11-01T00:43:28.305Z,89
2022-11-01T00:44:32.464Z,89
2022-11-01T00:45:36.940Z,89
2022-11-01T00:46:41.196Z,90
2022-11-01T00:47:45.576Z,89
2022-11-01T00:48:49.723Z,89
2022-11-01T00:49:54.332Z,89
2022-11-01T00:50:58.464Z,89
2022-11-01T00:52:02.984Z,89
2022-11-01T00:53:07.136Z,90
2022-11-01T00:54:11.659Z,89
2022-11-01T00:55:15.680Z,90
2022-11-01T00:56:19.847Z,90
2022-11-01T00:57:24.388Z,91
2022-11-01T00:58:28.443Z,89
2022-11-01T00:59:33.233Z,89
2022-11-01T01:00:37.620Z,90
2022-11-01T01:01:42.394Z,90
2022-11-01T01:02:46.717Z,90
2022-11-01T01:03:50.817Z,90
2022-11-01T01:04:55.004Z,90
2022-11-01T01:05:58.971Z,90
2022-11-01T01:07:03.075Z,90
2022-11-01T01:08:07.162Z,90
2022-11-01T01:09:11.304Z,91
2022-11-01T01:10:15.419Z,90
2022-11-01T01:11:19.888Z,90
2022-11-01T01:12:24.013Z,90
2022-11-01T01:13:28.009Z,90
2022-11-01T01:14:32.485Z,89
2022-11-01T01:15:36.717Z,90
2022-11-01T01:17:44.756Z,90
2022-11-01T01:18:48.925Z,90
2022-11-01T01:19:53.416Z,90
2022-11-01T01:20:57.469Z,90
2022-11-01T01:22:04.739Z,90
2022-11-01T01:23:09.283Z,90
2022-11-01T01:24:13.774Z,90
2022-11-01T01:25:17.840Z,90
2022-11-01T01:26:22.008Z,90
2022-11-01T01:27:26.044Z,90
2022-11-01T01:28:30.208Z,90
2022-11-01T01:29:34.699Z,90
2022-11-01T01:30:39.239Z,90
2022-11-01T01:31:43.401Z,90
2022-11-01T01:32:47.889Z,89
2022-11-01T01:33:51.947Z,90
2022-11-01T01:34:56.104Z,89
2022-11-01T01:36:00.355Z,89
2022-11-01T01:37:04.723Z,89
2022-11-01T01:38:08.835Z,90
2022-11-01T01:39:12.956Z,90
2022-11-01T01:40:17.073Z,90
2022-11-01T01:41:21.679Z,89
2022-11-01T01:42:31.251Z,89
2022-11-01T01:43:35.740Z,89
2022-11-01T01:44:42.911Z,89
2022-11-01T01:45:47.520Z,89
2022-11-01T01:46:52.056Z,89
2022-11-01T01:47:56.245Z,89
2022-11-01T01:49:08.419Z,90
2022-11-01T01:50:12.982Z,89
2022-11-01T01:51:17.423Z,89
2022-11-01T01:52:21.508Z,89
2022-11-01T01:53:25.686Z,89
2022-11-01T01:54:35.776Z,90
2022-11-01T01:55:39.898Z,90
2022-11-01T01:56:46.967Z,89
2022-11-01T01:57:51.041Z,89
2022-11-01T01:58:55.188Z,89
2022-11-01T02:00:04.839Z,88
2022-11-01T02:01:09.543Z,89
2022-11-01T02:02:13.654Z,89
2022-11-01T02:03:17.705Z,88
2022-11-01T02:04:22.263Z,88
2022-11-01T02:05:26.315Z,88
2022-11-01T02:06:35.915Z,88
2022-11-01T02:07:39.967Z,88
2022-11-01T02:08:44.120Z,88
2022-11-01T02:09:48.689Z,88
2022-11-01T02:10:52.831Z,88
2022-11-01T02:11:57.348Z,89
2022-11-01T02:13:01.540Z,89
2022-11-01T02:14:06.029Z,89
2022-11-01T02:15:10.147Z,89
2022-11-01T02:16:14.166Z,89
2022-11-01T02:17:28.959Z,89
2022-11-01T02:18:38.213Z,89
2022-11-01T02:19:42.675Z,89
2022-11-01T02:20:57.552Z,89
2022-11-01T02:22:09.676Z,89
2022-11-01T02:23:24.503Z,89
2022-11-01T02:24:39.144Z,90
2022-11-01T02:25:43.260Z,89
2022-11-01T02:26:55.475Z,89
2022-11-01T02:28:07.691Z,89
2022-11-01T02:29:22.488Z,89
2022-11-01T02:30:29.543Z,89
2022-11-01T02:31:39.172Z,89
2022-11-01T02:32:54.031Z,89
2022-11-01T02:34:03.199Z,89
2022-11-01T02:35:12.803Z,89
2022-11-01T02:36:27.669Z,88
2022-11-01T02:37:42.358Z,89
2022-11-01T02:38:57.176Z,89
2022-11-01T02:40:01.165Z,88
2022-11-01T02:41:08.274Z,89
2022-11-01T02:42:23.145Z,89
2022-11-01T02:43:29.739Z,89
2022-11-01T02:44:39.388Z,89
2022-11-01T02:45:43.499Z,88
2022-11-01T02:46:47.488Z,88
2022-11-01T02:47:57.219Z,89
2022-11-01T02:49:01.559Z,89
2022-11-01T02:50:06.174Z,89
2022-11-01T02:51:10.327Z,89
2022-11-01T02:52:14.495Z,89
2022-11-01T02:53:18.719Z,89
2022-11-01T02:54:23.208Z,89
2022-11-01T02:55:32.917Z,89
2022-11-01T02:56:36.845Z,89
2022-11-01T02:57:40.958Z,89
2022-11-01T02:58:45.067Z,89
2022-11-01T02:59:49.159Z,89
2022-11-01T03:00:53.371Z,88
2022-11-01T03:01:57.976Z,88
2022-11-01T03:03:01.859Z,88
2022-11-01T03:04:06.011Z,88
2022-11-01T03:05:10.043Z,88
2022-11-01T03:06:19.803Z,88
2022-11-01T03:07:29.364Z,88
2022-11-01T03:08:33.402Z,89
2022-11-01T03:09:45.647Z,88
2022-11-01T03:10:50.302Z,88
2022-11-01T03:12:04.992Z,89
2022-11-01T03:13:17.697Z,88
2022-11-01T03:14:21.815Z,88
2022-11-01T03:15:33.967Z,88
2022-11-01T03:16:38.151Z,88
2022-11-01T03:17:45.263Z,88
2022-11-01T03:18:49.758Z,88
2022-11-01T03:20:02.374Z,88
2022-11-01T03:21:06.600Z,88
2022-11-01T03:22:11.487Z,89
2022-11-01T03:23:20.860Z,88
2022-11-01T03:24:30.487Z,88
2022-11-01T03:25:40.059Z,88
2022-11-01T03:26:44.171Z,89
2022-11-01T03:27:48.223Z,89
2022-11-01T03:28:52.303Z,88
2022-11-01T03:29:56.353Z,89
2022-11-01T03:31:00.482Z,89
2022-11-01T03:32:04.561Z,89
2022-11-01T03:33:08.651Z,89
2022-11-01T03:34:12.727Z,89
2022-11-01T03:35:16.835Z,88
2022-11-01T03:36:21.373Z,88
2022-11-01T03:37:25.475Z,88
2022-11-01T03:38:29.947Z,88
2022-11-01T03:39:34.095Z,88
2022-11-01T03:40:46.379Z,88
2022-11-01T03:41:50.982Z,88
2022-11-01T03:42:55.484Z,88
2022-11-01T03:43:59.659Z,88
2022-11-01T03:45:04.128Z,88
2022-11-01T03:46:08.852Z,87
2022-11-01T03:47:13.483Z,87
2022-11-01T03:48:17.899Z,87
2022-11-01T03:49:22.435Z,88
2022-11-01T03:50:26.464Z,88
2022-11-01T03:51:30.639Z,87
2022-11-01T03:52:34.788Z,88
2022-11-01T03:53:39.437Z,88
2022-11-01T03:54:43.904Z,87
2022-11-01T03:55:47.987Z,88
2022-11-01T03:56:52.064Z,88
2022-11-01T03:57:56.215Z,87
2022-11-01T03:59:00.800Z,87
2022-11-01T04:00:05.519Z,88
2022-11-01T04:01:10.140Z,87
2022-11-01T04:02:14.552Z,88
2022-11-01T04:03:18.656Z,88
2022-11-01T04:04:23.219Z,88
2022-11-01T04:05:27.731Z,88
2022-11-01T04:06:31.809Z,88
2022-11-01T04:07:35.827Z,88
2022-11-01T04:08:39.947Z,87
2022-11-01T04:09:43.997Z,87
2022-11-01T04:10:48.160Z,88
2022-11-01T04:11:52.143Z,88
2022-11-01T04:12:56.307Z,88
2022-11-01T04:14:00.771Z,88
2022-11-01T04:15:10.027Z,89
2022-11-01T04:16:19.687Z,88
2022-11-01T04:17:29.352Z,89
2022-11-01T04:19:48.690Z,88
2022-11-01T04:20:57.943Z,88
2022-11-01T04:22:12.628Z,88
2022-11-01T04:23:16.770Z,88
2022-11-01T04:24:21.499Z,89
2022-11-01T04:25:26.018Z,89
2022-11-01T04:26:30.477Z,89
2022-11-01T04:27:35.038Z,89
2022-11-01T04:28:39.572Z,89
2022-11-01T04:29:43.715Z,89
2022-11-01T04:30:48.271Z,89
2022-11-01T04:31:52.828Z,89
2022-11-01T04:32:57.380Z,89
2022-11-01T04:34:01.583Z,89
2022-11-01T04:36:10.591Z,89
2022-11-01T04:37:15.169Z,89
2022-11-01T04:38:19.247Z,89
2022-11-01T04:39:23.295Z,89
2022-11-01T04:40:27.340Z,89
2022-11-01T04:41:31.529Z,89
2022-11-01T04:42:35.970Z,89
2022-11-01T04:43:40.096Z,90
2022-11-01T04:44:44.611Z,90
2022-11-01T04:45:48.659Z,89
2022-11-01T04:46:55.306Z,89
2022-11-01T04:47:59.654Z,89
2022-11-01T04:49:06.610Z,89
2022-11-01T04:50:11.023Z,89
2022-11-01T04:51:15.134Z,88
2022-11-01T04:52:19.378Z,88
2022-11-01T04:53:23.863Z,88
2022-11-01T04:54:27.951Z,88
2022-11-01T04:55:32.507Z,88
2022-11-01T04:56:36.527Z,88
2022-11-01T04:57:40.553Z,88
2022-11-01T04:58:45.091Z,88
2022-11-01T04:59:48.830Z,88
2022-11-01T05:00:52.832Z,88
2022-11-01T05:01:56.911Z,88
2022-11-01T05:03:01.249Z,88
2022-11-01T05:04:08.231Z,88
2022-11-01T05:05:12.658Z,88
2022-11-01T05:06:16.790Z,88
2022-11-01T05:07:21.051Z,88
2022-11-01T05:08:25.569Z,88
2022-11-01T05:09:31.137Z,88
2022-11-01T05:10:34.479Z,88
2022-11-01T05:11:38.669Z,88
2022-11-01T05:12:42.655Z,88
2022-11-01T05:13:46.880Z,88
2022-11-01T05:14:54.328Z,89
2022-11-01T05:16:21.498Z,88
2022-11-01T05:17:00.088Z,89
2022-11-01T05:18:04.083Z,89
2022-11-01T05:19:08.191Z,89
2022-11-01T05:20:12.278Z,88
2022-11-01T05:21:16.806Z,89
2022-11-01T05:22:20.923Z,89
2022-11-01T05:23:25.139Z,89
2022-11-01T05:24:29.731Z,89
2022-11-01T05:25:36.971Z,89
2022-11-01T05:26:38.251Z,89
2022-11-01T05:27:42.279Z,89
2022-11-01T05:28:46.318Z,89
2022-11-01T05:29:50.443Z,89
2022-11-01T05:30:54.571Z,89
2022-11-01T05:31:58.556Z,89
2022-11-01T05:33:02.723Z,89
2022-11-01T05:34:06.765Z,89
2022-11-01T05:35:10.896Z,89
2022-11-01T05:36:15.436Z,89
2022-11-01T05:37:22.453Z,89
2022-11-01T05:38:24.618Z,89
2022-11-01T05:39:28.563Z,89
2022-11-01T05:40:32.735Z,89
2022-11-01T05:41:37.236Z,89
2022-11-01T05:42:41.400Z,88
2022-11-01T05:43:46.007Z,89
2022-11-01T05:44:50.606Z,89
2022-11-01T05:45:55.034Z,88
2022-11-01T05:46:59.198Z,88
2022-11-01T05:48:04.568Z,89
2022-11-01T05:49:08.846Z,89
2022-11-01T05:50:13.442Z,89
2022-11-01T05:51:17.652Z,89
2022-11-01T05:52:22.628Z,88
2022-11-01T05:53:26.753Z,88
2022-11-01T05:54:31.376Z,89
2022-11-01T05:55:35.797Z,88
2022-11-01T05:56:39.855Z,88
2022-11-01T05:57:44.110Z,88
2022-11-01T05:58:48.596Z,88
2022-11-01T05:59:53.126Z,88
2022-11-01T06:00:57.221Z,88
2022-11-01T06:02:02.183Z,88
2022-11-01T06:03:06.862Z,88
2022-11-01T06:04:11.026Z,88
2022-11-01T06:05:15.461Z,88
2022-11-01T06:06:19.596Z,88
2022-11-01T06:07:24.163Z,88
2022-11-01T06:08:28.615Z,88
2022-11-01T06:09:32.640Z,88
2022-11-01T06:10:36.964Z,88
2022-11-01T06:11:41.864Z,88
2022-11-01T06:12:45.476Z,89
2022-11-01T06:13:49.611Z,88
2022-11-01T06:14:54.123Z,88
2022-11-01T06:15:58.146Z,88
2022-11-01T06:17:02.227Z,88
2022-11-01T06:18:06.608Z,88
2022-11-01T06:19:10.939Z,88
2022-11-01T06:20:15.058Z,88
2022-11-01T06:21:19.269Z,88
2022-11-01T06:22:23.662Z,87
2022-11-01T06:23:27.787Z,88
2022-11-01T06:24:32.435Z,88
2022-11-01T06:25:36.930Z,88
2022-11-01T06:26:41.419Z,88
2022-11-01T06:27:45.615Z,88
2022-11-01T06:28:50.102Z,88
2022-11-01T06:29:54.237Z,87
2022-11-01T06:30:59.227Z,88
2022-11-01T06:32:03.523Z,88
2022-11-01T06:33:08.090Z,88
2022-11-01T06:34:12.514Z,87
2022-11-01T06:35:16.606Z,87
2022-11-01T06:36:20.950Z,88
2022-11-01T06:37:25.342Z,88
2022-11-01T06:38:29.491Z,87
2022-11-01T06:39:34.032Z,88
2022-11-01T06:40:38.530Z,87
2022-11-01T06:41:42.606Z,87
2022-11-01T06:42:47.102Z,88
2022-11-01T06:43:50.711Z,88
2022-11-01T06:44:54.838Z,88
2022-11-01T06:45:59.166Z,88
2022-11-01T06:47:03.586Z,88
2022-11-01T06:48:08.182Z,88
2022-11-01T06:49:14.844Z,88
2022-11-01T06:50:17.193Z,87
2022-11-01T06:51:21.486Z,87
2022-11-01T06:52:25.879Z,87
2022-11-01T06:53:30.509Z,87
2022-11-01T06:54:35.013Z,87
2022-11-01T06:55:39.614Z,87
2022-11-01T06:56:44.322Z,87
2022-11-01T06:57:49.009Z,87
2022-11-01T06:58:57.623Z,87
2022-11-01T07:00:02.093Z,87
2022-11-01T07:01:06.827Z,87
2022-11-01T07:02:14.409Z,87
2022-11-01T07:03:16.027Z,87
2022-11-01T07:04:20.367Z,87
2022-11-01T07:05:25.394Z,87
2022-11-01T07:06:29.418Z,87
2022-11-01T07:07:34.003Z,87
2022-11-01T07:08:38.229Z,87
2022-11-01T07:09:42.682Z,87
2022-11-01T07:10:46.790Z,87
2022-11-01T07:11:51.323Z,87
2022-11-01T07:12:55.875Z,87
2022-11-01T07:14:03.070Z,87
2022-11-01T07:15:07.155Z,87
2022-11-01T07:16:11.671Z,87
2022-11-01T07:17:15.811Z,87
2022-11-01T07:18:19.923Z,87
2022-11-01T07:19:24.543Z,87
2022-11-01T07:20:29.161Z,87
2022-11-01T07:21:33.768Z,87
2022-11-01T07:22:38.182Z,87
2022-11-01T07:23:42.690Z,87
2022-11-01T07:24:46.810Z,86
2022-11-01T07:25:51.411Z,86
2022-11-01T07:26:55.997Z,87
2022-11-01T07:28:00.054Z,87
2022-11-01T07:29:04.830Z,87
2022-11-01T07:30:09.408Z,87
2022-11-01T07:31:13.830Z,87
2022-11-01T07:32:18.657Z,87
2022-11-01T07:33:22.954Z,87
2022-11-01T07:34:27.550Z,87
2022-11-01T07:35:31.573Z,86
2022-11-01T07:36:36.122Z,86
2022-11-01T07:37:40.198Z,87
2022-11-01T07:38:44.297Z,87
2022-11-01T07:39:48.908Z,87
2022-11-01T07:40:53.549Z,87
2022-11-01T07:41:58.072Z,87
2022-11-01T07:43:02.618Z,87
2022-11-01T07:44:07.237Z,87
2022-11-01T07:45:13.046Z,87
2022-11-01T07:46:16.371Z,86
2022-11-01T07:47:20.466Z,87
2022-11-01T07:48:25.046Z,87
2022-11-01T07:49:29.634Z,87
2022-11-01T07:50:34.125Z,87
2022-11-01T07:51:38.658Z,87
2022-11-01T07:52:42.822Z,87
2022-11-01T07:53:46.993Z,87
2022-11-01T07:54:51.477Z,87
2022-11-01T07:55:55.647Z,87
2022-11-01T07:57:03.030Z,87
2022-11-01T07:58:07.761Z,86
2022-11-01T07:59:11.900Z,86
2022-11-01T08:00:16.340Z,86
2022-11-01T08:01:21.499Z,87
2022-11-01T08:02:25.695Z,86
2022-11-01T08:03:29.727Z,87
2022-11-01T08:04:34.274Z,87
2022-11-01T08:05:38.427Z,86
2022-11-01T08:06:44.252Z,86
2022-11-01T08:07:47.051Z,87
2022-11-01T08:08:51.267Z,86
2022-11-01T08:09:56.281Z,86
2022-11-01T08:11:00.334Z,86
2022-11-01T08:12:04.918Z,86
2022-11-01T08:13:09.059Z,86
2022-11-01T08:14:18.655Z,86
2022-11-01T08:15:22.717Z,86
2022-11-01T08:16:26.897Z,86
2022-11-01T08:17:31.450Z,86
2022-11-01T08:18:35.931Z,86
2022-11-01T08:19:40.023Z,86
2022-11-01T08:20:44.593Z,86
2022-11-01T08:21:48.750Z,86
2022-11-01T08:22:53.384Z,86
2022-11-01T08:23:57.927Z,86
2022-11-01T08:25:02.041Z,86
2022-11-01T08:26:06.615Z,86
2022-11-01T08:27:11.256Z,86
2022-11-01T08:28:15.931Z,86
2022-11-01T08:29:20.221Z,86
2022-11-01T08:30:24.598Z,86
2022-11-01T08:31:29.133Z,86
2022-11-01T08:32:33.610Z,87
2022-11-01T08:33:38.134Z,86
2022-11-01T08:34:42.742Z,87
2022-11-01T08:35:50.317Z,86
2022-11-01T08:36:52.166Z,86
2022-11-01T08:37:56.435Z,87
2022-11-01T08:39:01.039Z,87
2022-11-01T08:40:05.588Z,87
2022-11-01T08:41:10.215Z,87
2022-11-01T08:42:14.277Z,87
2022-11-01T08:43:18.353Z,87
2022-11-01T08:44:22.834Z,87
2022-11-01T08:45:27.000Z,87
2022-11-01T08:46:31.470Z,86
2022-11-01T08:47:35.625Z,87
2022-11-01T08:48:40.129Z,87
2022-11-01T08:49:44.185Z,86
2022-11-01T08:50:48.289Z,87
2022-11-01T08:51:52.790Z,87
2022-11-01T08:52:57.454Z,87
2022-11-01T08:54:07.550Z,87
2022-11-01T08:55:11.753Z,87
2022-11-01T08:56:16.338Z,87
2022-11-01T08:57:20.781Z,87
2022-11-01T08:58:24.892Z,87
2022-11-01T08:59:29.082Z,87
2022-11-01T09:00:33.646Z,87
2022-11-01T09:01:38.272Z,86
2022-11-01T09:02:42.716Z,87
2022-11-01T09:03:47.315Z,87
2022-11-01T09:04:51.837Z,87
2022-11-01T09:05:55.866Z,86
2022-11-01T09:07:00.025Z,86
2022-11-01T09:08:05.460Z,87
2022-11-01T09:09:09.096Z,86
2022-11-01T09:10:13.261Z,87
2022-11-01T09:11:17.390Z,87
2022-11-01T09:12:24.514Z,87
2022-11-01T09:13:25.974Z,87
2022-11-01T09:14:30.373Z,87
2022-11-01T09:15:34.642Z,87
2022-11-01T09:16:39.218Z,87
2022-11-01T09:17:43.869Z,87
2022-11-01T09:18:48.362Z,86
2022-11-01T09:19:53.437Z,87
2022-11-01T09:20:58.038Z,87
2022-11-01T09:22:02.596Z,87
2022-11-01T09:23:07.174Z,87
2022-11-01T09:24:11.722Z,87
2022-11-01T09:25:16.270Z,86
2022-11-01T09:26:20.389Z,87
2022-11-01T09:27:24.426Z,87
2022-11-01T09:28:31.426Z,87
2022-11-01T09:30:41.448Z,87
2022-11-01T09:31:41.102Z,87
2022-11-01T09:32:45.197Z,86
2022-11-01T09:33:49.298Z,87
2022-11-01T09:34:56.341Z,86
2022-11-01T09:36:00.511Z,86
2022-11-01T09:37:05.098Z,86
2022-11-01T09:38:09.726Z,86
2022-11-01T09:39:14.328Z,86
2022-11-01T09:40:18.793Z,86
2022-11-01T09:41:22.857Z,86
2022-11-01T09:42:32.089Z,87
2022-11-01T09:43:39.129Z,87
2022-11-01T09:44:43.221Z,86
2022-11-01T09:45:47.801Z,87
2022-11-01T09:46:53.454Z,87
2022-11-01T09:47:56.427Z,86
2022-11-01T09:49:00.533Z,86
2022-11-01T09:50:04.591Z,86
2022-11-01T09:51:16.753Z,86
2022-11-01T09:52:21.333Z,87
2022-11-01T09:53:25.425Z,86
2022-11-01T09:54:29.553Z,86
2022-11-01T09:55:33.609Z,87
2022-11-01T09:56:48.494Z,86
2022-11-01T09:58:03.382Z,86
2022-11-01T09:59:07.201Z,87
2022-11-01T10:00:14.816Z,86
2022-11-01T10:01:18.909Z,86
2022-11-01T10:02:33.377Z,86
2022-11-01T10:03:45.850Z,86
2022-11-01T10:04:58.082Z,86
2022-11-01T10:06:07.790Z,86
2022-11-01T10:07:17.392Z,85
2022-11-01T10:08:21.582Z,86
2022-11-01T10:09:36.229Z,86
2022-11-01T10:10:43.409Z,86
2022-11-01T10:11:58.153Z,86
2022-11-01T10:13:10.338Z,86
2022-11-01T10:14:19.533Z,86
2022-11-01T10:15:23.593Z,86
2022-11-01T10:16:38.443Z,86
2022-11-01T10:17:43.351Z,85
2022-11-01T10:18:52.562Z,85
2022-11-01T10:19:59.758Z,85
2022-11-01T10:21:04.385Z,86
2022-11-01T10:22:14.489Z,86
2022-11-01T10:23:23.741Z,86
2022-11-01T10:24:38.265Z,86
2022-11-01T10:25:45.486Z,85
2022-11-01T10:26:49.514Z,86
2022-11-01T10:28:04.398Z,86
2022-11-01T10:29:11.529Z,86
2022-11-01T10:30:23.797Z,85
2022-11-01T10:31:28.269Z,85
2022-11-01T10:32:32.309Z,85
2022-11-01T10:33:36.845Z,85
2022-11-01T10:34:40.845Z,85
2022-11-01T10:35:45.002Z,85
2022-11-01T10:36:52.114Z,85
2022-11-01T10:38:03.905Z,85
2022-11-01T10:39:48.547Z,85
2022-11-01T10:40:13.811Z,85
2022-11-01T10:41:17.529Z,85
2022-11-01T10:42:32.321Z,85
2022-11-01T10:43:36.384Z,86
2022-11-01T10:44:46.552Z,85
2022-11-01T10:45:50.609Z,86
2022-11-01T10:46:54.717Z,86
2022-11-01T10:47:58.939Z,85
2022-11-01T10:49:03.378Z,86
2022-11-01T10:50:07.970Z,86
2022-11-01T10:51:14.546Z,85
2022-11-01T10:52:18.689Z,85
2022-11-01T10:53:25.783Z,86
2022-11-01T10:54:29.979Z,86
2022-11-01T10:55:34.381Z,86
2022-11-01T10:56:44.106Z,86
2022-11-01T10:57:48.210Z,85
2022-11-01T10:58:52.782Z,86
2022-11-01T11:00:02.570Z,86
2022-11-01T11:01:07.714Z,85
2022-11-01T11:02:12.363Z,86
2022-11-01T11:03:21.757Z,86
2022-11-01T11:04:26.372Z,86
2022-11-01T11:05:30.926Z,85
2022-11-01T11:06:35.521Z,85
2022-11-01T11:07:40.128Z,85
2022-11-01T11:08:44.763Z,85
2022-11-01T11:09:52.576Z,85
2022-11-01T11:10:56.921Z,85
2022-11-01T11:12:03.993Z,85
2022-11-01T11:13:13.721Z,85
2022-11-01T11:14:18.225Z,85
2022-11-01T11:15:22.364Z,84
2022-11-01T11:16:31.971Z,84
2022-11-01T11:17:41.513Z,85
2022-11-01T11:18:45.578Z,85
2022-11-01T11:20:00.361Z,84
2022-11-01T11:21:05.042Z,84
2022-11-01T11:22:09.514Z,84
2022-11-01T11:23:13.573Z,83
2022-11-01T11:24:17.712Z,83
2022-11-01T11:25:29.809Z,83
2022-11-01T11:26:38.327Z,84
2022-11-01T11:27:38.605Z,84
2022-11-01T11:28:48.614Z,84
2022-11-01T11:29:52.758Z,84
2022-11-01T11:30:56.869Z,84
2022-11-01T11:32:11.553Z,84
2022-11-01T11:33:18.649Z,84
2022-11-01T11:34:22.702Z,84
2022-11-01T11:35:37.411Z,84
2022-11-01T11:36:41.998Z,84
2022-11-01T11:37:46.053Z,84
2022-11-01T11:38:50.164Z,84
2022-11-01T11:39:54.321Z,84
2022-11-01T11:41:03.942Z,84
2022-11-01T11:42:08.109Z,84
2022-11-01T11:43:15.215Z,84
2022-11-01T11:44:19.833Z,84
2022-11-01T11:45:31.939Z,84
2022-11-01T11:46:36.852Z,84
2022-11-01T11:47:41.128Z,84
2022-11-01T11:48:45.716Z,84
2022-11-01T11:49:52.917Z,84
2022-11-01T11:50:57.341Z,83
2022-11-01T11:52:04.931Z,83
2022-11-01T11:53:09.156Z,82
2022-11-01T11:54:16.665Z,82
2022-11-01T11:55:26.925Z,83
2022-11-01T11:56:36.458Z,83
2022-11-01T11:57:40.597Z,83
2022-11-01T11:58:45.156Z,83
2022-11-01T11:59:49.170Z,83
2022-11-01T12:00:53.462Z,82
2022-11-01T12:02:00.563Z,83
2022-11-01T12:03:05.444Z,83
2022-11-01T12:04:09.712Z,83
2022-11-01T12:05:17.341Z,83
2022-11-01T12:06:22.280Z,83
2022-11-01T12:07:27.884Z,83
2022-11-01T12:08:35.497Z,84
2022-11-01T12:09:45.043Z,83
2022-11-01T12:10:49.314Z,83
2022-11-01T12:11:54.020Z,83
2022-11-01T12:12:58.312Z,83
2022-11-01T12:14:02.472Z,83
2022-11-01T12:15:17.129Z,83
2022-11-01T12:17:31.581Z,83
2022-11-01T12:18:46.269Z,83
2022-11-01T12:19:50.848Z,83
2022-11-01T12:21:00.369Z,82
2022-11-01T12:22:04.525Z,82
2022-11-01T12:23:09.049Z,83
2022-11-01T12:24:13.573Z,83
2022-11-01T12:25:28.503Z,82
2022-11-01T12:26:33.037Z,82
2022-11-01T12:27:37.477Z,82
2022-11-01T12:28:41.605Z,82
2022-11-01T12:29:48.916Z,82
2022-11-01T12:30:53.240Z,81
2022-11-01T12:31:57.568Z,82
2022-11-01T12:33:06.993Z,82
2022-11-01T12:34:16.645Z,82
2022-11-01T12:35:26.453Z,83
2022-11-01T12:36:33.616Z,82
2022-11-01T12:37:40.750Z,82
2022-11-01T12:38:47.829Z,81
2022-11-01T12:39:52.545Z,80
2022-11-01T12:41:00.140Z,81
2022-11-01T12:42:14.745Z,81
2022-11-01T12:43:19.473Z,82
2022-11-01T12:44:28.917Z,82
2022-11-01T12:45:33.438Z,82
2022-11-01T12:46:48.328Z,82
2022-11-01T12:47:52.814Z,81
2022-11-01T12:49:02.585Z,81
2022-11-01T12:50:12.137Z,82
2022-11-01T12:51:22.349Z,81
2022-11-01T12:52:26.898Z,81
2022-11-01T12:53:41.600Z,81
2022-11-01T12:54:48.725Z,81
2022-11-01T12:55:52.916Z,82
2022-11-01T12:56:57.368Z,81
2022-11-01T12:58:01.561Z,81
2022-11-01T12:59:06.134Z,81
2022-11-01T13:00:13.625Z,81
2022-11-01T13:01:18.405Z,81
2022-11-01T13:02:28.025Z,82
2022-11-01T13:03:40.689Z,82
2022-11-01T13:04:55.321Z,82
2022-11-01T13:06:04.948Z,82
2022-11-01T13:07:14.581Z,82
2022-11-01T13:08:29.284Z,82
2022-11-01T13:09:42.034Z,82
2022-11-01T13:10:51.658Z,82
2022-11-01T13:11:55.781Z,82
2022-11-01T13:13:00.477Z,83
2022-11-01T13:14:12.512Z,83
2022-11-01T13:15:27.239Z,83
2022-11-01T13:16:32.617Z,82
2022-11-01T13:17:37.092Z,82
2022-11-01T13:18:41.512Z,83
2022-11-01T13:19:56.278Z,83
2022-11-01T13:21:08.526Z,82
2022-11-01T13:22:12.676Z,83
2022-11-01T13:23:22.204Z,82
2022-11-01T13:24:36.868Z,82
2022-11-01T13:25:46.609Z,83
2022-11-01T13:26:53.918Z,83
2022-11-01T13:28:06.489Z,83
2022-11-01T13:29:19.177Z,83
2022-11-01T13:30:31.445Z,83
2022-11-01T13:31:35.990Z,83
2022-11-01T13:32:45.581Z,83
2022-11-01T13:33:57.903Z,84
2022-11-01T13:35:09.907Z,84
2022-11-01T13:36:27.264Z,84
2022-11-01T13:37:39.095Z,84
2022-11-01T13:38:49.780Z,83
2022-11-01T13:40:01.877Z,83
2022-11-01T13:41:16.921Z,84
2022-11-01T13:42:26.308Z,84
2022-11-01T13:43:35.812Z,84
2022-11-01T13:44:39.992Z,84
2022-11-01T13:45:50.125Z,84
2022-11-01T13:46:57.214Z,84
2022-11-01T13:48:12.321Z,84
2022-11-01T13:49:19.796Z,84
2022-11-01T13:50:24.323Z,85
2022-11-01T13:51:35.708Z,84
2022-11-01T13:52:44.976Z,85
2022-11-01T13:53:49.156Z,85
2022-11-01T13:54:53.629Z,85
2022-11-01T13:56:03.401Z,85
2022-11-01T13:57:18.061Z,85
2022-11-01T13:58:22.132Z,85
2022-11-01T13:59:26.272Z,85
2022-11-01T14:00:31.492Z,86
2022-11-01T14:01:36.022Z,86
2022-11-01T14:02:40.141Z,85
2022-11-01T14:03:49.976Z,86
2022-11-01T14:05:03.848Z,86
2022-11-01T14:06:10.931Z,86
2022-11-01T14:07:23.100Z,86
2022-11-01T14:08:27.415Z,86
2022-11-01T14:09:31.785Z,86
2022-11-01T14:10:36.260Z,86
2022-11-01T14:11:40.384Z,86
2022-11-01T14:12:49.965Z,86
2022-11-01T14:13:57.401Z,86
2022-11-01T14:15:01.805Z,86
2022-11-01T14:16:16.492Z,86
2022-11-01T14:17:20.506Z,86
2022-11-01T14:18:24.616Z,85
2022-11-01T14:19:28.882Z,86
2022-11-01T14:20:33.268Z,86
2022-11-01T14:21:43.515Z,86
2022-11-01T14:22:48.052Z,86
2022-11-01T14:23:52.619Z,86
2022-11-01T14:24:59.706Z,85
2022-11-01T14:26:03.788Z,86
2022-11-01T14:27:18.913Z,86
2022-11-01T14:28:28.177Z,87
2022-11-01T14:29:32.908Z,87
2022-11-01T14:30:37.337Z,86
2022-11-01T14:31:41.396Z,86
2022-11-01T14:32:46.028Z,86
2022-11-01T14:34:00.216Z,87
2022-11-01T14:35:02.222Z,86
2022-11-01T14:36:07.352Z,86
2022-11-01T14:37:11.877Z,86
2022-11-01T14:38:16.436Z,86
2022-11-01T14:39:20.837Z,87
2022-11-01T14:40:32.793Z,86
2022-11-01T14:41:44.928Z,86
2022-11-01T14:42:49.348Z,86
2022-11-01T14:43:53.569Z,86
2022-11-01T14:44:58.061Z,86
2022-11-01T14:46:02.164Z,87
2022-11-01T14:47:09.728Z,87
2022-11-01T14:48:24.848Z,87
2022-11-01T14:49:29.153Z,86
2022-11-01T14:50:38.820Z,86
2022-11-01T14:51:43.325Z,87
2022-11-01T14:52:47.423Z,86
2022-11-01T14:53:51.584Z,87
2022-11-01T14:55:01.148Z,87
2022-11-01T14:56:13.921Z,87
2022-11-01T14:57:18.756Z,87
2022-11-01T14:58:28.345Z,87
2022-11-01T14:59:32.769Z,87
2022-11-01T15:00:37.468Z,87
2022-11-01T15:01:41.943Z,87
2022-11-01T15:02:46.407Z,87
2022-11-01T15:03:50.625Z,87
2022-11-01T15:04:57.606Z,87
2022-11-01T15:06:01.716Z,87
2022-11-01T15:07:06.282Z,87
2022-11-01T15:08:15.951Z,87
2022-11-01T15:09:28.140Z,87
2022-11-01T15:10:32.172Z,87
2022-11-01T15:11:41.813Z,87
2022-11-01T15:12:47.715Z,87
2022-11-01T15:13:58.265Z,87
2022-11-01T15:15:00.093Z,87
2022-11-01T15:16:04.629Z,87
2022-11-01T15:17:13.965Z,87
2022-11-01T15:18:20.856Z,87
2022-11-01T15:19:25.075Z,87
2022-11-01T15:20:29.669Z,87
2022-11-01T15:21:42.923Z,87
2022-11-01T15:22:45.460Z,87
2022-11-01T15:23:49.990Z,87
2022-11-01T15:24:54.612Z,87
2022-11-01T15:25:59.168Z,87
2022-11-01T15:27:08.823Z,88
2022-11-01T15:28:15.828Z,87
2022-11-01T15:29:23.067Z,87
2022-11-01T15:30:27.728Z,87
2022-11-01T15:31:32.255Z,87
2022-11-01T15:32:36.708Z,87
2022-11-01T15:33:41.392Z,88
2022-11-01T15:34:50.906Z,87
2022-11-01T15:35:55.051Z,87
2022-11-01T15:37:07.654Z,87
2022-11-01T15:38:12.596Z,87
2022-11-01T15:39:16.149Z,87
2022-11-01T15:40:25.568Z,88
2022-11-01T15:41:30.049Z,88
2022-11-01T15:42:34.647Z,87
2022-11-01T15:43:39.188Z,87
2022-11-01T15:44:45.069Z,88